createdAt,value
2018-08-22T00:00:01.702Z,79.71
2018-08-22T00:02:37.463Z,80.72
2018-08-22T00:05:13.416Z,81.36
2018-08-22T00:07:49.207Z,81.52
2018-08-22T00:10:24.937Z,80.73
2018-08-22T00:13:00.603Z,79.87
2018-08-22T00:15:36.456Z,78.81
2018-08-22T00:18:12.270Z,78.93
2018-08-22T00:20:47.988Z,78.15
2018-08-22T00:23:23.853Z,78.82
2018-08-22T00:26:00.100Z,80.90
2018-08-22T00:28:35.848Z,80.76
2018-08-22T00:31:11.552Z,81.44
2018-08-22T00:33:47.328Z,84.36
2018-08-22T00:36:23.453Z,84.82
2018-08-22T00:38:59.362Z,83.72
2018-08-22T00:41:35.294Z,84.14
2018-08-22T00:44:11.322Z,83.84
2018-08-22T00:46:46.923Z,83.27
2018-08-22T00:49:22.824Z,81.91
2018-08-22T00:51:58.562Z,80.06
2018-08-22T00:54:34.392Z,79.39
2018-08-22T00:57:09.988Z,78.75
2018-08-22T00:59:45.658Z,78.99
2018-08-22T01:02:21.490Z,79.01
2018-08-22T01:04:57.518Z,77.30
2018-08-22T01:07:33.241Z,77.39
2018-08-22T01:10:09.869Z,79.58
2018-08-22T01:12:45.544Z,81.59
2018-08-22T01:15:21.282Z,81.94
2018-08-22T01:17:57.150Z,80.41
2018-08-22T01:20:32.798Z,80.97
2018-08-22T01:23:09.362Z,79.69
2018-08-22T01:25:45.062Z,79.81
2018-08-22T01:28:20.819Z,79.90
2018-08-22T01:30:56.605Z,81.24
2018-08-22T01:33:32.401Z,80.75
2018-08-22T01:36:08.293Z,80.09
2018-08-22T01:38:44.204Z,79.97
2018-08-22T01:41:20.317Z,80.18
2018-08-22T01:43:56.073Z,82.14
2018-08-22T01:46:31.940Z,82.87
2018-08-22T01:49:07.801Z,83.45
2018-08-22T01:51:43.664Z,83.67
2018-08-22T01:54:19.376Z,82.28
2018-08-22T01:56:55.238Z,81.76
2018-08-22T01:59:30.969Z,82.61
2018-08-22T02:02:06.795Z,83.72
2018-08-22T02:04:45.328Z,83.43
2018-08-22T02:07:21.045Z,81.42
2018-08-22T02:09:59.254Z,80.79
2018-08-22T02:12:34.992Z,81.70
2018-08-22T02:15:10.595Z,82.65
2018-08-22T02:17:46.391Z,80.98
2018-08-22T02:20:22.017Z,80.39
2018-08-22T02:22:57.981Z,79.60
2018-08-22T02:25:33.829Z,78.64
2018-08-22T02:28:09.472Z,80.36
2018-08-22T02:30:45.211Z,81.18
2018-08-22T02:33:21.028Z,79.72
2018-08-22T02:35:56.802Z,79.45
2018-08-22T02:38:32.497Z,80.45
2018-08-22T02:41:08.672Z,82.83
2018-08-22T02:43:44.450Z,83.89
2018-08-22T02:46:20.033Z,84.59
2018-08-22T02:48:56.882Z,82.68
2018-08-22T02:51:32.701Z,82.62
2018-08-22T02:54:08.579Z,82.78
2018-08-22T02:56:44.482Z,84.52
2018-08-22T02:59:20.325Z,85.07
2018-08-22T03:01:56.047Z,85.11
2018-08-22T03:04:31.980Z,85.02
2018-08-22T03:07:07.856Z,83.27
2018-08-22T03:09:44.646Z,83.31
2018-08-22T03:12:20.714Z,81.94
2018-08-22T03:14:56.454Z,80.22
2018-08-22T03:17:32.155Z,81.85
2018-08-22T03:20:07.949Z,83.25
2018-08-22T03:22:43.845Z,85.35
2018-08-22T03:25:19.478Z,86.63
2018-08-22T03:27:55.225Z,88.18
2018-08-22T03:30:31.107Z,86.89
2018-08-22T03:33:06.919Z,87.09
2018-08-22T03:35:42.712Z,87.32
2018-08-22T03:38:18.553Z,85.39
2018-08-22T03:40:54.297Z,84.25
2018-08-22T03:43:30.026Z,83.60
2018-08-22T03:46:05.888Z,83.49
2018-08-22T03:48:41.729Z,83.41
2018-08-22T03:51:17.665Z,83.38
2018-08-22T03:53:53.398Z,84.00
2018-08-22T03:56:29.273Z,82.58
2018-08-22T03:59:05.000Z,81.69
2018-08-22T04:01:40.932Z,81.55
2018-08-22T04:04:16.661Z,81.39
2018-08-22T04:06:52.375Z,81.48
2018-08-22T04:09:28.209Z,81.23
2018-08-22T04:12:04.180Z,79.75
2018-08-22T04:14:40.138Z,78.21
2018-08-22T04:17:16.047Z,78.01
2018-08-22T04:19:51.869Z,77.34
2018-08-22T04:22:27.789Z,78.91
2018-08-22T04:25:03.607Z,81.18
2018-08-22T04:27:39.427Z,81.36
2018-08-22T04:30:15.317Z,82.57
2018-08-22T04:32:51.061Z,83.02
2018-08-22T04:35:26.716Z,83.84
2018-08-22T04:38:02.687Z,82.58
2018-08-22T04:40:41.816Z,82.41
2018-08-22T04:43:17.509Z,81.69
2018-08-22T04:45:53.111Z,81.61
2018-08-22T04:48:28.945Z,80.65
2018-08-22T04:51:09.111Z,79.23
2018-08-22T04:53:44.891Z,77.73
2018-08-22T04:56:20.809Z,77.20
2018-08-22T04:58:56.581Z,76.28
2018-08-22T05:01:32.333Z,76.16
2018-08-22T05:04:08.197Z,75.51
2018-08-22T05:06:44.014Z,74.21
2018-08-22T05:09:19.936Z,72.85
2018-08-22T05:11:56.310Z,71.25
2018-08-22T05:14:32.037Z,71.69
2018-08-22T05:17:08.778Z,71.99
2018-08-22T05:19:44.578Z,72.08
2018-08-22T05:22:20.292Z,72.51
2018-08-22T05:24:56.200Z,71.41
2018-08-22T05:27:32.017Z,69.93
2018-08-22T05:30:07.849Z,69.59
2018-08-22T05:32:43.625Z,70.62
2018-08-22T05:35:19.497Z,69.49
2018-08-22T05:37:55.323Z,69.14
2018-08-22T05:40:31.096Z,68.50
2018-08-22T05:43:06.921Z,68.00
2018-08-22T05:45:42.701Z,66.09
2018-08-22T05:48:18.421Z,64.79
2018-08-22T05:50:54.317Z,63.48
2018-08-22T05:53:30.186Z,63.29
2018-08-22T05:56:01.037Z,63.24
2018-08-22T05:58:31.922Z,62.98
2018-08-22T06:01:02.731Z,62.77
2018-08-22T06:03:33.509Z,61.10
2018-08-22T06:06:04.307Z,60.42
2018-08-22T06:08:35.088Z,59.28
2018-08-22T06:11:05.949Z,59.46
2018-08-22T06:13:36.826Z,59.63
2018-08-22T06:16:07.634Z,59.58
2018-08-22T06:18:38.414Z,57.43
2018-08-22T06:21:09.289Z,57.80
2018-08-22T06:23:40.103Z,58.85
2018-08-22T06:26:11.028Z,58.08
2018-08-22T06:28:41.832Z,56.83
2018-08-22T06:31:12.657Z,56.26
2018-08-22T06:33:43.440Z,56.04
2018-08-22T06:36:14.276Z,56.30
2018-08-22T06:38:45.256Z,56.08
2018-08-22T06:41:16.431Z,54.91
2018-08-22T06:43:47.217Z,55.37
2018-08-22T06:46:18.247Z,54.68
2018-08-22T06:48:49.010Z,51.65
2018-08-22T06:51:19.816Z,50.95
2018-08-22T06:53:50.576Z,51.26
2018-08-22T06:56:21.421Z,50.45
2018-08-22T06:58:52.057Z,50.44
2018-08-22T07:01:22.928Z,50.35
2018-08-22T07:03:54.312Z,49.70
2018-08-22T07:06:25.124Z,49.44
2018-08-22T07:08:55.912Z,49.45
2018-08-22T07:11:26.757Z,48.25
2018-08-22T07:13:58.633Z,48.18
2018-08-22T07:16:29.484Z,47.67
2018-08-22T07:19:00.252Z,48.20
2018-08-22T07:21:31.085Z,48.48
2018-08-22T07:24:01.865Z,48.20
2018-08-22T07:26:32.734Z,48.19
2018-08-22T07:29:03.496Z,47.92
2018-08-22T07:31:34.402Z,47.40
2018-08-22T07:34:05.218Z,47.20
2018-08-22T07:36:36.011Z,47.83
2018-08-22T07:39:11.170Z,45.45
2018-08-22T07:41:42.051Z,45.12
2018-08-22T07:44:13.044Z,41.73
2018-08-22T07:46:43.900Z,41.75
2018-08-22T07:49:15.136Z,39.88
2018-08-22T07:51:45.964Z,36.60
2018-08-22T07:54:16.766Z,35.85
2018-08-22T07:56:48.037Z,36.21
2018-08-22T07:59:21.465Z,35.33
2018-08-22T08:01:52.388Z,36.05
2018-08-22T08:04:23.446Z,35.48
2018-08-22T08:06:54.285Z,35.71
2018-08-22T08:09:25.337Z,35.10
2018-08-22T08:11:56.403Z,36.37
2018-08-22T08:14:27.268Z,36.04
2018-08-22T08:16:58.434Z,35.32
2018-08-22T08:19:29.333Z,35.55
2018-08-22T08:22:00.148Z,33.28
2018-08-22T08:24:30.982Z,33.85
2018-08-22T08:27:01.830Z,30.93
2018-08-22T08:29:33.813Z,33.50
2018-08-22T08:32:04.609Z,32.92
2018-08-22T08:34:35.385Z,32.05
2018-08-22T08:37:06.174Z,31.78
2018-08-22T08:39:36.948Z,32.55
2018-08-22T08:42:07.988Z,32.33
2018-08-22T08:44:38.754Z,31.04
2018-08-22T08:47:09.538Z,31.18
2018-08-22T08:49:40.322Z,30.59
2018-08-22T08:52:11.340Z,30.24
2018-08-22T08:54:42.292Z,30.42
2018-08-22T08:57:13.186Z,29.58
2018-08-22T08:59:44.136Z,27.96
2018-08-22T09:02:14.962Z,28.50
2018-08-22T09:04:45.723Z,29.54
2018-08-22T09:07:16.563Z,29.95
2018-08-22T09:09:47.337Z,30.29
2018-08-22T09:12:18.260Z,27.31
2018-08-22T09:17:26.249Z,27.64
2018-08-22T09:19:57.136Z,26.28
2018-08-22T09:22:27.920Z,27.24
2018-08-22T09:24:58.700Z,26.05
2018-08-22T09:27:29.517Z,26.52
2018-08-22T09:30:00.302Z,26.88
2018-08-22T09:32:31.310Z,27.77
2018-08-22T09:35:02.852Z,27.09
2018-08-22T09:37:33.655Z,27.84
2018-08-22T09:40:04.524Z,26.52
2018-08-22T09:42:35.621Z,27.19
2018-08-22T09:45:06.387Z,26.46
2018-08-22T09:47:37.167Z,27.12
2018-08-22T09:50:08.067Z,26.29
2018-08-22T09:52:39.049Z,24.91
2018-08-22T09:55:09.810Z,25.42
2018-08-22T09:57:40.707Z,26.20
2018-08-22T10:00:16.631Z,26.08
2018-08-22T10:02:47.574Z,26.21
2018-08-22T10:05:18.350Z,26.70
2018-08-22T10:07:49.141Z,25.35
2018-08-22T10:10:20.566Z,25.62
2018-08-22T10:12:51.640Z,25.27
2018-08-22T10:15:22.706Z,24.98
2018-08-22T10:17:53.645Z,26.14
2018-08-22T10:20:24.432Z,24.90
2018-08-22T10:22:55.237Z,23.76
2018-08-22T10:25:26.792Z,24.79
2018-08-22T10:27:57.603Z,24.73
2018-08-22T10:30:28.385Z,22.54
2018-08-22T10:32:59.205Z,22.93
2018-08-22T10:35:30.166Z,21.55
2018-08-22T10:38:01.382Z,22.17
2018-08-22T10:40:32.154Z,22.79
2018-08-22T10:43:03.008Z,22.64
2018-08-22T10:45:33.764Z,23.55
2018-08-22T10:48:05.547Z,23.95
2018-08-22T10:50:36.797Z,25.07
2018-08-22T10:53:08.612Z,23.24
2018-08-22T10:55:39.369Z,22.80
2018-08-22T10:58:10.216Z,23.69
2018-08-22T11:00:40.976Z,22.65
2018-08-22T11:03:11.938Z,23.37
2018-08-22T11:05:43.551Z,23.93
2018-08-22T11:08:14.494Z,24.93
2018-08-22T11:10:45.276Z,23.24
2018-08-22T11:13:16.102Z,23.01
2018-08-22T11:15:58.896Z,22.93
2018-08-22T11:18:29.957Z,23.15
2018-08-22T11:21:11.521Z,23.36
2018-08-22T11:23:53.054Z,23.33
2018-08-22T11:26:34.531Z,22.49
2018-08-22T11:29:16.144Z,23.76
2018-08-22T11:31:57.708Z,21.37
2018-08-22T11:34:39.302Z,21.47
2018-08-22T11:37:11.236Z,22.37
2018-08-22T11:39:43.794Z,21.61
2018-08-22T11:42:14.585Z,21.85
2018-08-22T11:44:45.443Z,21.69
2018-08-22T11:47:16.222Z,21.58
2018-08-22T11:49:47.057Z,21.50
2018-08-22T11:52:17.882Z,21.26
2018-08-22T11:54:48.691Z,21.80
2018-08-22T11:57:19.512Z,23.12
2018-08-22T11:59:50.335Z,22.20
2018-08-22T12:02:21.138Z,22.78
2018-08-22T12:04:52.442Z,22.99
2018-08-22T12:07:23.399Z,23.87
2018-08-22T12:09:54.193Z,23.19
2018-08-22T12:12:25.230Z,23.49
2018-08-22T12:14:56.709Z,22.72
2018-08-22T13:29:00.926Z,21.42
2018-08-22T13:31:31.587Z,20.63
2018-08-22T13:34:02.276Z,20.09
2018-08-22T13:36:32.972Z,19.30
2018-08-22T13:39:04.589Z,19.93
2018-08-22T13:41:35.597Z,21.43
2018-08-22T13:44:07.211Z,22.44
2018-08-22T13:46:37.884Z,22.91
2018-08-22T13:49:08.626Z,22.49
2018-08-22T13:51:39.356Z,22.79
2018-08-22T13:54:10.101Z,24.23
2018-08-22T13:56:40.795Z,22.93
2018-08-22T13:59:11.586Z,22.72
2018-08-22T14:01:42.271Z,23.23
2018-08-22T14:04:12.997Z,24.20
2018-08-22T14:06:43.706Z,24.77
2018-08-22T14:09:14.387Z,24.49
2018-08-22T14:11:45.055Z,25.64
2018-08-22T14:14:16.077Z,25.41
2018-08-22T14:16:46.894Z,25.74
2018-08-22T14:19:17.705Z,26.37
2018-08-22T14:21:48.415Z,26.15
2018-08-22T14:24:19.134Z,24.29
2018-08-22T14:26:49.781Z,24.01
2018-08-22T14:29:20.716Z,24.15
2018-08-22T14:31:51.385Z,23.55
2018-08-22T14:34:22.332Z,22.54
2018-08-22T14:36:52.997Z,21.66
2018-08-22T14:39:23.920Z,21.16
2018-08-22T14:41:54.780Z,22.58
2018-08-22T14:44:25.540Z,22.24
2018-08-22T14:46:56.202Z,20.83
2018-08-22T14:49:26.943Z,20.48
2018-08-22T14:51:57.612Z,19.58
2018-08-22T14:54:28.314Z,18.99
2018-08-22T14:56:58.940Z,18.33
2018-08-22T14:59:29.751Z,18.71
2018-08-22T15:04:24.737Z,16.51
2018-08-22T15:06:56.387Z,17.74
2018-08-22T15:09:27.060Z,19.49
2018-08-22T15:11:57.801Z,23.75
2018-08-22T15:14:28.446Z,25.12
2018-08-22T15:16:59.261Z,26.52
2018-08-22T15:19:30.281Z,27.61
2018-08-22T15:22:01.022Z,27.58
2018-08-22T15:24:31.797Z,28.48
2018-08-22T15:27:02.600Z,28.84
2018-08-22T15:29:33.328Z,28.77
2018-08-22T15:32:06.047Z,29.26
2018-08-22T15:34:57.034Z,29.23
2018-08-22T15:37:27.816Z,29.96
2018-08-22T15:39:58.523Z,29.71
2018-08-22T15:42:29.266Z,30.89
2018-08-22T15:44:59.976Z,30.68
2018-08-22T15:47:30.870Z,31.01
2018-08-22T15:50:02.834Z,30.80
2018-08-22T15:52:33.604Z,31.45
2018-08-22T15:55:11.559Z,31.20
2018-08-22T15:57:58.733Z,31.30
2018-08-22T16:00:41.741Z,31.71
2018-08-22T16:03:13.256Z,32.12
2018-08-22T16:05:44.853Z,32.33
2018-08-22T16:08:17.859Z,32.88
2018-08-22T16:10:48.573Z,33.04
2018-08-22T16:13:24.876Z,33.43
2018-08-22T16:15:56.749Z,33.03
2018-08-22T16:18:27.668Z,33.26
2018-08-22T16:21:00.632Z,33.22
2018-08-22T16:23:33.532Z,32.82
2018-08-22T16:26:05.181Z,32.58
2018-08-22T16:28:49.866Z,33.82
2018-08-22T16:31:21.313Z,34.00
2018-08-22T16:33:52.019Z,33.75
2018-08-22T16:36:26.792Z,34.47
2018-08-22T16:38:57.848Z,34.75
2018-08-22T16:41:28.496Z,34.97
2018-08-22T16:43:59.217Z,35.06
2018-08-22T16:46:29.896Z,35.67
2018-08-22T16:49:00.620Z,35.59
2018-08-22T16:51:31.313Z,36.07
2018-08-22T16:54:07.014Z,36.00
2018-08-22T16:56:38.347Z,36.31
2018-08-22T16:59:11.767Z,37.67
2018-08-22T17:01:46.615Z,37.11
2018-08-22T17:04:17.633Z,36.89
2018-08-22T17:06:48.514Z,37.73
2018-08-22T17:09:19.288Z,38.22
2018-08-22T17:11:50.012Z,39.75
2018-08-22T17:14:20.761Z,40.95
2018-08-22T17:16:51.507Z,41.15
2018-08-22T17:19:22.356Z,41.44
2018-08-22T17:21:53.033Z,41.06
2018-08-22T17:24:24.309Z,42.42
2018-08-22T17:26:56.296Z,43.26
2018-08-22T17:29:27.095Z,44.42
2018-08-22T17:32:02.900Z,43.84
2018-08-22T17:34:33.711Z,44.81
2018-08-22T17:37:07.852Z,45.93
2018-08-22T17:39:38.652Z,44.36
2018-08-22T17:42:09.331Z,44.51
2018-08-22T17:44:40.058Z,44.29
2018-08-22T17:47:10.810Z,45.24
2018-08-22T17:49:41.726Z,46.76
2018-08-22T17:52:13.333Z,45.84
2018-08-22T17:54:44.360Z,46.56
2018-08-22T17:57:21.154Z,46.30
2018-08-22T17:59:52.751Z,49.45
2018-08-22T18:02:23.924Z,48.77
2018-08-22T18:05:02.386Z,47.03
2018-08-22T18:07:33.077Z,47.76
2018-08-22T18:10:04.991Z,47.90
2018-08-22T18:12:35.726Z,49.70
2018-08-22T18:15:06.515Z,50.68
2018-08-22T18:17:37.181Z,50.12
2018-08-22T18:20:08.273Z,50.52
2018-08-22T18:22:39.672Z,49.34
2018-08-22T18:25:10.521Z,50.28
2018-08-22T18:27:41.247Z,51.00
2018-08-22T18:30:12.730Z,52.67
2018-08-22T18:32:45.735Z,52.38
2018-08-22T18:35:16.424Z,52.56
2018-08-22T18:37:47.109Z,52.99
2018-08-22T18:40:19.849Z,52.82
2018-08-22T18:42:52.727Z,52.99
2018-08-22T18:45:24.082Z,53.46
2018-08-22T18:47:54.818Z,51.64
2018-08-22T18:50:25.561Z,51.23
2018-08-22T18:52:57.591Z,50.43
2018-08-22T18:55:32.771Z,51.21
2018-08-22T18:58:04.882Z,51.02
2018-08-22T19:00:36.702Z,51.35
2018-08-22T19:03:07.829Z,52.45
2018-08-22T19:05:38.867Z,53.58
2018-08-22T19:08:11.368Z,56.01
2018-08-22T19:10:43.533Z,55.86
2018-08-22T19:13:16.273Z,53.67
2018-08-22T19:15:48.845Z,52.18
2018-08-22T19:18:19.668Z,53.68
2018-08-22T19:20:51.012Z,55.03
2018-08-22T19:23:21.814Z,56.97
2018-08-22T19:25:53.567Z,57.37
2018-08-22T19:28:24.436Z,58.00
2018-08-22T19:30:55.189Z,58.29
2018-08-22T19:33:27.941Z,58.50
2018-08-22T19:35:58.980Z,60.25
2018-08-22T19:38:29.933Z,61.21
2018-08-22T19:41:35.893Z,62.66
2018-08-22T19:44:07.256Z,62.38
2018-08-22T19:46:38.010Z,62.09
2018-08-22T19:49:08.764Z,61.33
2018-08-22T19:51:39.646Z,60.05
2018-08-22T19:54:10.435Z,59.62
2018-08-22T19:56:41.186Z,61.22
2018-08-22T19:59:17.008Z,60.75
2018-08-22T20:01:52.700Z,61.05
2018-08-22T20:04:28.369Z,60.90
2018-08-22T20:07:04.123Z,60.30
2018-08-22T20:09:43.934Z,61.02
2018-08-22T20:12:20.020Z,61.50
2018-08-22T20:14:56.607Z,61.14
2018-08-22T20:17:32.480Z,60.92
2018-08-22T20:20:09.746Z,59.86
2018-08-22T20:22:47.746Z,60.83
2018-08-22T20:25:23.705Z,63.73
2018-08-22T20:28:02.920Z,64.33
2018-08-22T20:30:38.689Z,62.28
2018-08-22T20:33:14.522Z,62.93
2018-08-22T20:35:50.141Z,63.58
2018-08-22T20:38:25.938Z,64.84
2018-08-22T20:41:08.860Z,66.62
2018-08-22T20:43:44.593Z,61.34
2018-08-22T20:46:22.233Z,59.78
2018-08-22T20:48:58.036Z,63.20
2018-08-22T20:51:33.985Z,63.01
2018-08-22T20:54:14.060Z,63.67
2018-08-22T20:56:54.630Z,66.69
2018-08-22T20:59:32.470Z,67.60
2018-08-22T21:02:09.011Z,67.14
2018-08-22T21:04:44.957Z,65.43
2018-08-22T21:07:22.875Z,64.98
2018-08-22T21:09:58.554Z,65.19
2018-08-22T21:12:34.202Z,66.63
2018-08-22T21:15:10.045Z,66.09
2018-08-22T21:17:45.959Z,66.60
2018-08-22T21:20:25.560Z,66.53
2018-08-22T21:23:02.085Z,66.36
2018-08-22T21:25:37.713Z,64.71
2018-08-22T21:28:13.935Z,65.36
2018-08-22T21:30:54.838Z,65.18
2018-08-22T21:33:31.151Z,65.44
2018-08-22T21:36:07.015Z,65.72
2018-08-22T21:38:44.889Z,66.65
2018-08-22T21:41:20.575Z,67.12
2018-08-22T21:43:56.327Z,66.66
2018-08-22T21:46:32.025Z,66.68
2018-08-22T21:49:12.673Z,66.75
2018-08-22T21:51:48.214Z,69.44
2018-08-22T21:54:23.766Z,68.60
2018-08-22T21:56:59.424Z,69.27
2018-08-22T21:59:35.201Z,71.45
2018-08-22T22:02:11.883Z,72.65
2018-08-22T22:04:47.890Z,73.05
2018-08-22T22:07:23.603Z,71.06
2018-08-22T22:10:04.344Z,70.08
2018-08-22T22:12:40.641Z,69.78
2018-08-22T22:15:21.162Z,69.23
2018-08-22T22:17:56.900Z,68.30
2018-08-22T22:20:32.609Z,68.29
2018-08-22T22:23:08.305Z,68.49
2018-08-22T22:25:44.178Z,67.75
2018-08-22T22:28:20.729Z,68.88
2018-08-22T22:30:56.422Z,69.38
2018-08-22T22:33:32.201Z,68.85
2018-08-22T22:36:07.812Z,68.42
2018-08-22T22:38:43.603Z,68.76
2018-08-22T22:41:19.220Z,68.87
2018-08-22T22:43:54.942Z,68.36
2018-08-22T22:46:30.642Z,67.74
2018-08-22T22:49:06.673Z,67.99
2018-08-22T22:51:42.434Z,69.79
2018-08-22T22:54:22.665Z,70.90
2018-08-22T22:56:58.395Z,71.05
2018-08-22T22:59:34.122Z,70.56
2018-08-22T23:02:09.806Z,71.83
2018-08-22T23:04:50.503Z,73.42
2018-08-22T23:07:32.172Z,74.74
2018-08-22T23:10:11.549Z,73.23
2018-08-22T23:12:47.570Z,73.09
2018-08-22T23:15:27.564Z,72.28
2018-08-22T23:18:03.220Z,74.12
2018-08-22T23:20:40.455Z,73.47
2018-08-22T23:23:36.429Z,73.80
2018-08-22T23:26:18.929Z,73.57
2018-08-22T23:28:54.709Z,74.47
2018-08-22T23:31:30.225Z,73.93
2018-08-22T23:34:05.987Z,72.24
2018-08-22T23:36:42.036Z,71.33
2018-08-22T23:39:17.753Z,71.39
2018-08-22T23:41:53.338Z,71.00
2018-08-22T23:44:29.042Z,69.87
2018-08-22T23:47:04.648Z,69.32
2018-08-22T23:49:44.338Z,69.68
2018-08-22T23:52:20.161Z,69.00
2018-08-22T23:54:55.768Z,70.04
2018-08-22T23:57:31.479Z,70.56
